Time;durP1;ratioP1;P1;durP2;ratioP2;P2;SDS_P1;SDS_P2;PMS_P1;PMS_P2;Temp;Humidity;BMP_temperature;BMP_pressure;BME280_temperature;BME280_humidity;BME280_pressure;Samples;Min_cycle;Max_cycle;Signal;HPM_P1;HPM_P2
2022/02/13 00:07:02;;;;;;;95.10;36.10;;;;;;;-3.33;74.24;99773.33;440050;1250;95669;-41
2022/02/13 00:17:06;;;;;;;90.70;33.20;;;;;;;-3.27;74.21;99762.06;440129;1250;107801;-40
2022/02/13 00:27:09;;;;;;;109.60;41.00;;;;;;;-3.28;74.38;99754.39;440038;1250;95323;-41
2022/02/13 00:37:13;;;;;;;97.10;40.00;;;;;;;-3.34;74.23;99745.52;439928;1250;95706;-42
2022/02/13 00:47:17;;;;;;;96.20;37.40;;;;;;;-3.39;74.44;99736.77;439894;1250;108841;-41
2022/02/13 00:57:21;;;;;;;66.30;29.50;;;;;;;-3.41;74.55;99729.95;435891;1250;5397835;-41
2022/02/13 01:07:25;;;;;;;56.70;28.10;;;;;;;-3.34;74.46;99722.77;439789;1250;109734;-40
2022/02/13 01:17:28;;;;;;;106.70;38.40;;;;;;;-3.37;74.73;99712.77;439754;1250;109007;-40
2022/02/13 01:27:32;;;;;;;90.80;37.00;;;;;;;-3.49;74.59;99702.84;439803;1250;95274;-41
2022/02/13 01:37:36;;;;;;;95.70;38.10;;;;;;;-3.62;74.66;99687.77;439731;1250;109727;-40
2022/02/13 01:47:41;;;;;;;63.30;30.70;;;;;;;-3.64;74.66;99676.08;439861;1250;96083;-40
2022/02/13 01:57:44;;;;;;;67.30;29.80;;;;;;;-3.58;74.73;99655.05;439847;1250;95481;-40
2022/02/13 02:07:48;;;;;;;100.70;37.70;;;;;;;-3.62;75.00;99640.59;439753;1250;109354;-40
2022/02/13 02:17:52;;;;;;;100.60;39.00;;;;;;;-3.70;75.04;99631.86;439949;1250;96751;-41
2022/02/13 02:27:55;;;;;;;93.60;35.50;;;;;;;-3.84;75.07;99617.70;439985;1250;95694;-41
2022/02/13 02:37:59;;;;;;;65.50;28.10;;;;;;;-3.86;75.05;99609.76;440054;1250;96778;-40
2022/02/13 02:48:06;;;;;;;64.60;28.40;;;;;;;-3.82;75.26;99601.76;439965;1250;108770;-42
2022/02/13 02:58:10;;;;;;;81.90;36.10;;;;;;;-3.85;75.56;99591.77;439799;1250;95463;-40
2022/02/13 03:08:14;;;;;;;96.40;37.80;;;;;;;-3.90;75.69;99584.09;440077;1250;95266;-43
2022/02/13 03:18:18;;;;;;;64.90;27.90;;;;;;;-3.95;75.62;99575.55;439971;1250;108736;-41
2022/02/13 03:28:25;;;;;;;65.50;28.10;;;;;;;-3.90;75.69;99563.04;439731;1250;96169;-40
2022/02/13 03:38:29;;;;;;;95.50;36.60;;;;;;;-3.86;75.84;99554.51;439798;1250;96516;-40
2022/02/13 03:48:33;;;;;;;88.00;40.10;;;;;;;-3.89;75.93;99539.38;440106;1250;95283;-41
2022/02/13 03:58:37;;;;;;;64.80;30.80;;;;;;;-3.94;76.09;99528.77;439737;1250;108634;-39
2022/02/13 04:08:40;;;;;;;65.00;31.20;;;;;;;-3.88;76.21;99521.92;439544;1252;96240;-40
2022/02/13 04:18:44;;;;;;;66.30;30.20;;;;;;;-3.85;76.16;99517.54;439851;1248;96236;-41
2022/02/13 04:28:48;;;;;;;87.20;34.90;;;;;;;-3.85;76.36;99503.05;439770;1250;108624;-40
2022/02/13 04:38:52;;;;;;;91.00;35.00;;;;;;;-3.89;76.48;99493.25;439876;1250;95355;-40
2022/02/13 04:48:56;;;;;;;60.00;27.80;;;;;;;-3.94;76.66;99483.30;439928;1250;109628;-41
2022/02/13 04:58:59;;;;;;;53.70;23.80;;;;;;;-3.84;76.71;99474.20;439962;1250;96801;-41
2022/02/13 05:09:04;;;;;;;66.50;28.70;;;;;;;-3.63;76.78;99470.89;439763;1250;96502;-41
2022/02/13 05:19:09;;;;;;;82.20;33.00;;;;;;;-3.55;77.00;99466.17;439017;1251;95308;-40
2022/02/13 05:29:12;;;;;;;69.30;32.40;;;;;;;-3.56;77.27;99453.11;438795;1252;95750;-39
2022/02/13 05:39:16;;;;;;;53.10;26.60;;;;;;;-3.48;77.30;99442.61;438838;1252;108777;-41
2022/02/13 05:49:20;;;;;;;40.90;22.60;;;;;;;-3.26;77.32;99438.83;438646;1252;97839;-41
2022/02/13 05:59:24;;;;;;;56.80;25.70;;;;;;;-3.00;77.51;99435.76;438179;1252;108878;-40
2022/02/13 06:09:27;;;;;;;53.80;24.00;;;;;;;-2.86;77.70;99434.19;438570;1251;97830;-40
2022/02/13 06:19:31;;;;;;;42.40;22.70;;;;;;;-2.70;77.69;99427.19;439600;1252;98625;-41
2022/02/13 06:29:35;;;;;;;41.30;19.40;;;;;;;-2.43;77.48;99409.96;439383;1252;108897;-40
2022/02/13 06:39:39;;;;;;;39.80;19.40;;;;;;;-2.12;77.45;99396.80;439781;1252;96609;-41
2022/02/13 06:49:46;;;;;;;50.90;22.30;;;;;;;-1.98;77.14;99402.36;439759;1250;110672;-40
2022/02/13 06:59:50;;;;;;;40.50;22.50;;;;;;;-1.84;77.10;99412.00;439861;1249;108990;-40
2022/02/13 07:09:54;;;;;;;38.30;18.30;;;;;;;-1.42;76.81;99407.33;439672;1249;97821;-42
2022/02/13 07:19:58;;;;;;;42.80;19.90;;;;;;;-0.88;76.67;99391.30;439994;1249;111945;-41
2022/02/13 07:30:03;;;;;;;51.70;24.50;;;;;;;-0.25;76.07;99387.04;440011;1250;108868;-40
2022/02/13 07:40:10;;;;;;;51.90;27.20;;;;;;;0.83;76.07;99387.44;439773;1250;97846;-40
2022/02/13 07:50:18;;;;;;;48.00;23.00;;;;;;;2.32;75.79;99379.08;439960;1250;97833;-41
2022/02/13 08:00:22;;;;;;;26.60;15.20;;;;;;;3.73;73.61;99368.60;439768;1250;97842;-41
2022/02/13 08:10:25;;;;;;;32.00;17.30;;;;;;;4.29;71.88;99363.20;439909;1250;108638;-40
2022/02/13 08:20:32;;;;;;;32.50;17.10;;;;;;;4.67;71.69;99356.54;439884;1249;96691;-42
2022/02/13 08:30:35;;;;;;;28.30;16.20;;;;;;;4.40;70.01;99352.77;439979;1250;110914;-41
2022/02/13 08:40:40;;;;;;;33.00;17.20;;;;;;;3.78;69.08;99347.98;439973;1250;97817;-40
2022/02/13 08:50:43;;;;;;;32.90;16.20;;;;;;;3.56;68.33;99345.35;439961;1250;96990;-43
2022/02/13 09:00:47;;;;;;;33.90;16.90;;;;;;;3.32;67.67;99340.62;439565;1251;97502;-39
2022/02/13 09:10:51;;;;;;;22.10;11.20;;;;;;;3.36;67.90;99330.06;440167;1250;108597;-40
2022/02/13 09:20:55;;;;;;;22.80;13.10;;;;;;;3.43;66.84;99320.96;440082;1250;97856;-40
2022/02/13 09:30:58;;;;;;;22.20;11.20;;;;;;;3.69;66.44;99314.98;439941;1250;98267;-42
2022/02/13 09:41:04;;;;;;;21.00;10.00;;;;;;;3.86;65.80;99304.16;439983;1250;97496;-40
2022/02/13 09:51:09;;;;;;;20.90;10.90;;;;;;;3.94;65.17;99300.48;439746;1250;108899;-40
2022/02/13 10:01:12;;;;;;;23.50;10.40;;;;;;;4.13;64.96;99302.79;440020;1250;98371;-41
2022/02/13 10:11:18;;;;;;;16.80;8.70;;;;;;;4.41;63.61;99277.62;439964;1249;97913;-41
2022/02/13 10:21:35;;;;;;;14.60;7.80;;;;;;;4.50;62.57;99256.61;439196;1252;108737;-41
2022/02/13 10:31:41;;;;;;;17.50;7.90;;;;;;;4.66;62.06;99249.73;439939;1250;108800;-42
2022/02/13 10:41:45;;;;;;;13.50;7.40;;;;;;;4.80;61.59;99238.02;439805;1250;97833;-42
2022/02/13 10:51:51;;;;;;;12.90;7.10;;;;;;;4.99;61.78;99224.77;440205;1250;98610;-41
2022/02/13 11:01:55;;;;;;;9.90;6.10;;;;;;;5.09;59.51;99206.59;440029;1249;108853;-40
2022/02/13 11:12:00;;;;;;;10.10;6.50;;;;;;;5.17;59.40;99188.86;440022;1250;97508;-41
2022/02/13 11:22:05;;;;;;;13.70;7.00;;;;;;;5.28;59.23;99180.09;440080;1250;111119;-41
2022/02/13 11:32:31;;;;;;;13.10;7.40;;;;;;;5.35;58.46;99169.61;440326;1250;97759;-41
2022/02/13 11:42:36;;;;;;;11.60;6.50;;;;;;;5.39;58.36;99159.49;440174;1250;97498;-42
2022/02/13 11:52:51;;;;;;;10.20;5.90;;;;;;;5.41;57.57;99149.30;440124;1250;97813;-41
2022/02/13 12:02:56;;;;;;;12.20;6.20;;;;;;;5.44;56.14;99129.23;440071;1250;110818;-41
2022/02/13 12:13:21;;;;;;;10.90;6.40;;;;;;;5.41;55.91;99116.23;440018;1250;98137;-42
2022/02/13 12:33:31;;;;;;;14.00;6.80;;;;;;;5.28;55.67;99097.54;440038;1250;97839;-41
2022/02/13 12:43:37;;;;;;;15.10;6.30;;;;;;;5.34;54.75;99078.66;440164;1250;108936;-40
2022/02/13 12:53:41;;;;;;;13.30;6.90;;;;;;;5.38;55.09;99074.84;435818;1250;5740011;-41
2022/02/13 13:03:53;;;;;;;17.60;7.80;;;;;;;5.50;56.42;99068.15;440087;1249;97413;-41
2022/02/13 13:24:09;;;;;;;11.80;6.20;;;;;;;5.56;56.23;99048.12;439820;1250;108997;-42
2022/02/13 13:34:20;;;;;;;9.90;6.20;;;;;;;5.54;56.43;99038.45;440117;1250;97812;-40
2022/02/13 13:44:29;;;;;;;9.60;5.80;;;;;;;5.51;56.85;99034.56;439994;1250;97823;-41
2022/02/13 13:54:37;;;;;;;12.30;6.90;;;;;;;5.52;56.55;99023.19;440053;1250;111050;-41
2022/02/13 14:04:41;;;;;;;22.50;9.70;;;;;;;5.47;56.31;99014.70;440120;1250;109836;-42
2022/02/13 14:14:45;;;;;;;17.10;7.60;;;;;;;5.45;56.02;99009.64;439951;1250;97828;-41
2022/02/13 14:24:51;;;;;;;19.80;7.60;;;;;;;5.32;55.83;99004.06;439812;1250;97842;-41
2022/02/13 14:34:59;;;;;;;14.90;7.20;;;;;;;5.17;55.72;98995.44;439645;1252;97813;-40
2022/02/13 14:45:04;;;;;;;15.00;7.30;;;;;;;5.00;56.38;98990.38;440009;1250;108731;-41
2022/02/13 14:55:08;;;;;;;20.10;8.80;;;;;;;4.86;56.47;98977.19;439976;1250;98181;-40
2022/02/13 15:05:12;;;;;;;25.40;13.00;;;;;;;4.73;57.01;98972.65;440044;1252;98225;-41
2022/02/13 15:15:15;;;;;;;26.20;11.90;;;;;;;4.57;57.51;98964.45;440162;1252;108708;-42
2022/02/13 15:25:19;;;;;;;17.60;9.60;;;;;;;4.41;57.46;98951.14;440001;1252;98275;-41
2022/02/13 15:35:24;;;;;;;19.00;10.40;;;;;;;4.25;57.34;98930.39;440246;1250;97879;-40
2022/02/13 15:45:28;;;;;;;20.50;10.80;;;;;;;4.06;57.04;98919.91;440080;1252;108683;-40
2022/02/13 15:55:32;;;;;;;24.10;10.70;;;;;;;3.81;57.61;98917.30;440074;1252;97406;-42
2022/02/13 16:05:36;;;;;;;26.40;12.70;;;;;;;3.58;57.99;98914.39;440041;1252;97909;-40
2022/02/13 16:15:40;;;;;;;19.90;10.60;;;;;;;3.42;58.13;98918.88;439851;1251;108761;-42
2022/02/13 16:36:11;;;;;;;30.00;12.10;;;;;;;3.01;58.72;98916.90;440053;1251;96851;-40
2022/02/13 16:46:15;;;;;;;29.50;13.60;;;;;;;2.89;58.99;98904.40;440043;1252;108720;-41
2022/02/13 16:56:22;;;;;;;21.00;11.00;;;;;;;2.83;59.15;98908.05;439943;1251;97850;-41
2022/02/13 17:06:26;;;;;;;26.70;12.50;;;;;;;2.73;59.34;98905.12;440014;1251;111895;-41
2022/02/13 17:16:30;;;;;;;41.10;18.50;;;;;;;2.62;59.47;98892.45;440067;1252;98498;-43
2022/02/13 17:26:33;;;;;;;29.60;13.30;;;;;;;2.53;59.56;98881.30;439869;1252;96581;-41
2022/02/13 17:36:37;;;;;;;21.10;9.30;;;;;;;2.44;59.70;98881.11;440037;1252;96674;-41
2022/02/13 17:46:41;;;;;;;25.20;10.30;;;;;;;2.35;59.82;98892.48;440089;1252;107733;-41
2022/02/13 17:56:45;;;;;;;19.80;9.10;;;;;;;2.27;59.93;98896.34;440124;1252;97843;-42
2022/02/13 18:06:48;;;;;;;17.00;8.40;;;;;;;2.21;59.66;98885.10;439988;1250;97491;-41
2022/02/13 18:16:52;;;;;;;19.90;8.40;;;;;;;2.18;59.76;98883.87;440059;1251;97735;-41
2022/02/13 18:26:56;;;;;;;13.10;7.20;;;;;;;2.10;59.58;98873.74;438637;1252;109426;-41
2022/02/13 18:37:00;;;;;;;15.20;7.90;;;;;;;2.03;59.56;98857.80;440147;1252;97545;-42
2022/02/13 18:47:05;;;;;;;13.90;6.90;;;;;;;2.02;59.38;98854.45;440155;1252;97849;-40
2022/02/13 19:07:17;;;;;;;46.30;17.80;;;;;;;1.87;58.88;98850.02;440006;1252;97900;-40
2022/02/13 19:17:22;;;;;;;54.50;21.20;;;;;;;1.76;58.83;98858.40;439963;1251;97848;-43
2022/02/13 19:47:59;;;;;;;43.20;16.40;;;;;;;1.58;57.49;98840.02;440193;1252;97801;-41
2022/02/13 19:58:05;;;;;;;42.20;14.50;;;;;;;1.51;57.25;98842.89;440004;1251;97814;-40
2022/02/13 20:08:10;;;;;;;46.80;16.80;;;;;;;1.42;57.15;98846.00;439970;1251;108613;-40
2022/02/13 20:28:17;;;;;;;45.70;16.70;;;;;;;1.31;56.24;98842.83;440008;1252;97805;-40
2022/02/13 20:38:22;;;;;;;26.40;10.40;;;;;;;1.23;56.29;98827.67;440083;1251;108939;-41
2022/02/13 20:48:26;;;;;;;39.10;16.20;;;;;;;1.17;55.44;98820.80;440088;1251;97903;-41
2022/02/13 21:08:34;;;;;;;31.80;12.80;;;;;;;0.92;55.80;98812.70;439834;1251;109867;-41
2022/02/13 21:18:39;;;;;;;22.30;10.40;;;;;;;0.86;55.86;98806.83;439761;1250;97913;-41
2022/02/13 21:28:42;;;;;;;23.80;10.10;;;;;;;0.80;55.86;98800.20;439868;1251;97827;-40
2022/02/13 21:39:00;;;;;;;21.90;9.00;;;;;;;0.69;56.19;98790.98;440068;1250;109181;-42
2022/02/13 21:49:12;;;;;;;29.70;10.60;;;;;;;0.56;56.16;98781.88;439915;1251;97879;-41
2022/02/13 21:59:16;;;;;;;22.90;10.10;;;;;;;0.45;56.68;98771.14;440023;1250;97926;-41
2022/02/13 22:09:20;;;;;;;28.30;11.50;;;;;;;0.30;57.23;98770.29;439892;1251;108918;-41
2022/02/13 22:29:27;;;;;;;23.00;10.70;;;;;;;0.09;57.80;98756.89;438693;1251;96671;-40
2022/02/13 22:39:31;;;;;;;20.90;11.10;;;;;;;0.01;58.08;98743.32;439830;1251;107275;-41
2022/02/13 22:49:35;;;;;;;22.60;11.50;;;;;;;-0.03;58.30;98738.55;439900;1250;97867;-41
2022/02/13 22:59:39;;;;;;;30.10;11.50;;;;;;;-0.10;58.68;98730.97;439973;1250;97750;-40
2022/02/13 23:20:11;;;;;;;34.00;13.80;;;;;;;-0.40;59.29;98734.02;438676;1252;96683;-41
2022/02/13 23:30:16;;;;;;;53.00;17.50;;;;;;;-0.50;59.64;98738.88;439736;1250;111063;-41
2022/02/13 23:40:19;;;;;;;63.00;22.10;;;;;;;-0.68;59.91;98731.20;439883;1250;109132;-40
2022/02/13 23:50:23;;;;;;;59.00;20.60;;;;;;;-0.93;60.21;98720.25;439913;1250;97833;-40
